createdAt,value
2023-05-15T00:02:57.179Z,6.03
2023-05-15T00:06:01.548Z,6.43
2023-05-15T00:09:05.497Z,6.47
2023-05-15T00:12:09.544Z,6.53
2023-05-15T00:15:13.782Z,5.30
2023-05-15T00:18:17.822Z,6.20
2023-05-15T00:21:21.984Z,5.97
2023-05-15T00:24:25.861Z,6.00
2023-05-15T00:27:29.797Z,6.30
2023-05-15T00:30:34.148Z,6.28
2023-05-15T00:33:38.217Z,6.38
2023-05-15T00:36:42.523Z,6.28
2023-05-15T00:39:46.673Z,6.28
2023-05-15T00:42:51.201Z,6.30
2023-05-15T00:45:55.683Z,5.90
2023-05-15T00:49:00.981Z,6.15
2023-05-15T00:52:08.371Z,5.68
2023-05-15T00:55:12.723Z,6.65
2023-05-15T00:58:18.037Z,5.93
2023-05-15T01:01:22.059Z,6.00
2023-05-15T01:04:25.818Z,6.13
2023-05-15T01:07:34.898Z,6.30
2023-05-15T01:10:40.964Z,6.30
2023-05-15T01:13:45.120Z,6.53
2023-05-15T01:16:49.078Z,6.47
2023-05-15T01:19:52.966Z,7.00
2023-05-15T01:23:15.709Z,6.70
2023-05-15T01:26:30.480Z,6.70
2023-05-15T01:29:59.166Z,6.93
2023-05-15T01:33:17.208Z,6.82
2023-05-15T01:36:33.254Z,6.50
2023-05-15T01:39:39.485Z,5.90
2023-05-15T01:42:51.727Z,6.28
2023-05-15T01:45:57.718Z,6.07
2023-05-15T01:49:03.598Z,6.38
2023-05-15T01:52:16.731Z,6.80
2023-05-15T01:55:22.228Z,6.97
2023-05-15T01:58:27.420Z,7.07
2023-05-15T02:01:33.149Z,7.80
2023-05-15T02:04:38.490Z,7.90
2023-05-15T02:07:44.370Z,7.03
2023-05-15T02:10:49.589Z,7.32
2023-05-15T02:13:56.781Z,7.72
2023-05-15T02:17:00.955Z,7.57
2023-05-15T02:20:08.608Z,7.47
2023-05-15T02:23:12.872Z,7.68
2023-05-15T02:26:39.219Z,6.78
2023-05-15T02:30:22.710Z,6.97
2023-05-15T02:33:49.441Z,7.18
2023-05-15T02:36:57.891Z,7.10
2023-05-15T02:40:06.748Z,7.53
2023-05-15T02:43:11.379Z,7.10
2023-05-15T02:46:16.167Z,6.97
2023-05-15T02:49:21.914Z,6.80
2023-05-15T02:52:26.170Z,7.68
2023-05-15T02:55:31.186Z,7.85
2023-05-15T02:58:36.054Z,7.30
2023-05-15T03:01:40.309Z,7.63
2023-05-15T03:04:44.282Z,8.10
2023-05-15T03:07:48.506Z,8.52
2023-05-15T03:10:52.688Z,8.82
2023-05-15T03:13:56.719Z,8.18
2023-05-15T03:17:00.759Z,8.00
2023-05-15T03:20:05.607Z,8.40
2023-05-15T03:23:09.899Z,8.05
2023-05-15T03:26:13.716Z,8.35
2023-05-15T03:29:17.770Z,8.52
2023-05-15T03:32:21.927Z,8.75
2023-05-15T03:35:27.089Z,8.48
2023-05-15T03:38:31.411Z,8.13
2023-05-15T03:41:35.414Z,9.30
2023-05-15T03:44:39.311Z,9.40
2023-05-15T03:47:43.940Z,8.90
2023-05-15T03:50:48.187Z,8.93
2023-05-15T03:53:52.772Z,8.88
2023-05-15T03:56:56.973Z,8.27
2023-05-15T04:00:03.808Z,9.23
2023-05-15T04:03:08.313Z,8.82
2023-05-15T04:06:12.393Z,9.38
2023-05-15T04:09:17.033Z,9.57
2023-05-15T04:12:22.115Z,8.70
2023-05-15T04:15:28.648Z,9.45
2023-05-15T04:18:32.748Z,8.75
2023-05-15T04:21:36.873Z,8.52
2023-05-15T04:24:40.625Z,9.30
2023-05-15T04:27:44.867Z,9.80
2023-05-15T04:30:48.889Z,8.57
2023-05-15T04:33:52.616Z,9.23
2023-05-15T04:36:56.545Z,8.68
2023-05-15T04:40:00.786Z,8.52
2023-05-15T04:43:04.623Z,8.77
2023-05-15T04:46:08.278Z,8.68
2023-05-15T04:49:12.148Z,9.73
2023-05-15T04:52:16.909Z,8.32
2023-05-15T04:55:20.730Z,9.18
2023-05-15T04:58:24.856Z,9.23
2023-05-15T05:01:28.982Z,9.18
2023-05-15T05:04:32.820Z,9.93
2023-05-15T05:07:36.847Z,10.65
2023-05-15T05:10:40.921Z,10.35
2023-05-15T05:13:49.419Z,10.90
2023-05-15T05:16:53.605Z,11.00
2023-05-15T05:19:57.726Z,10.18
2023-05-15T05:23:01.866Z,9.23
2023-05-15T05:26:06.289Z,9.70
2023-05-15T05:29:10.991Z,8.68
2023-05-15T05:32:14.911Z,8.60
2023-05-15T05:35:19.134Z,8.27
2023-05-15T05:38:23.298Z,8.82
2023-05-15T05:41:27.450Z,8.98
2023-05-15T05:44:31.815Z,8.50
2023-05-15T05:47:35.888Z,8.27
2023-05-15T05:50:40.519Z,8.05
2023-05-15T05:53:44.920Z,8.40
2023-05-15T05:56:50.195Z,7.68
2023-05-15T05:59:54.501Z,7.18
2023-05-15T06:02:59.826Z,7.65
2023-05-15T06:06:04.026Z,7.97
2023-05-15T06:09:07.858Z,7.80
2023-05-15T06:12:12.492Z,7.18
2023-05-15T06:15:16.865Z,7.38
2023-05-15T06:18:21.175Z,7.88
2023-05-15T06:21:25.180Z,7.80
2023-05-15T06:24:29.333Z,9.73
2023-05-15T06:27:33.788Z,8.07
2023-05-15T06:30:38.258Z,7.68
2023-05-15T06:33:42.692Z,8.55
2023-05-15T06:36:46.873Z,7.45
2023-05-15T06:39:51.128Z,8.18
2023-05-15T06:42:55.466Z,8.15
2023-05-15T06:45:59.554Z,8.00
2023-05-15T06:49:03.521Z,8.05
2023-05-15T06:52:07.517Z,7.95
2023-05-15T06:55:11.828Z,7.70
2023-05-15T06:58:17.926Z,7.88
2023-05-15T07:01:21.983Z,8.10
2023-05-15T07:04:26.294Z,7.32
2023-05-15T07:07:30.438Z,8.35
2023-05-15T07:10:34.571Z,9.35
2023-05-15T07:13:38.462Z,7.57
2023-05-15T07:16:42.885Z,7.63
2023-05-15T07:19:46.865Z,7.93
2023-05-15T07:22:56.146Z,7.65
2023-05-15T07:26:00.914Z,7.18
2023-05-15T07:29:05.468Z,7.45
2023-05-15T07:32:09.454Z,7.68
2023-05-15T07:35:13.579Z,7.60
2023-05-15T07:38:18.188Z,7.45
2023-05-15T07:41:22.573Z,7.43
2023-05-15T07:44:26.802Z,7.05
2023-05-15T07:47:30.826Z,6.97
2023-05-15T07:50:35.259Z,6.80
2023-05-15T07:53:42.482Z,6.07
2023-05-15T07:56:46.332Z,6.10
2023-05-15T07:59:50.918Z,6.10
2023-05-15T08:02:55.299Z,6.20
2023-05-15T08:06:00.111Z,5.40
2023-05-15T08:09:04.655Z,4.78
2023-05-15T08:12:24.318Z,5.07
2023-05-15T08:15:29.220Z,4.80
2023-05-15T08:18:33.380Z,5.13
2023-05-15T08:21:38.199Z,4.65
2023-05-15T08:24:42.710Z,4.45
2023-05-15T08:27:46.834Z,4.00
2023-05-15T08:30:50.705Z,3.70
2023-05-15T08:33:54.907Z,3.60
2023-05-15T08:36:59.282Z,3.67
2023-05-15T08:40:05.997Z,3.13
2023-05-15T08:43:16.271Z,3.17
2023-05-15T08:46:20.872Z,3.40
2023-05-15T08:49:28.333Z,3.13
2023-05-15T08:52:33.662Z,3.10
2023-05-15T08:55:38.198Z,3.03
2023-05-15T08:58:43.287Z,2.50
2023-05-15T09:01:47.365Z,2.53
2023-05-15T09:04:51.961Z,2.80
2023-05-15T09:07:58.892Z,2.60
2023-05-15T09:11:04.417Z,2.90
2023-05-15T09:14:09.204Z,2.58
2023-05-15T09:17:14.126Z,3.15
2023-05-15T09:20:26.910Z,3.10
2023-05-15T09:23:31.228Z,3.72
2023-05-15T09:26:35.060Z,3.00
2023-05-15T09:29:39.928Z,5.00
2023-05-15T09:32:44.296Z,3.63
2023-05-15T09:35:48.960Z,3.25
2023-05-15T09:38:59.506Z,3.45
2023-05-15T09:42:09.769Z,3.10
2023-05-15T09:45:18.238Z,2.90
2023-05-15T09:48:22.324Z,3.20
2023-05-15T09:51:27.866Z,2.90
2023-05-15T09:54:31.813Z,3.17
2023-05-15T09:57:36.116Z,3.30
2023-05-15T10:00:47.715Z,3.17
2023-05-15T10:03:59.959Z,3.10
2023-05-15T10:07:08.112Z,2.75
2023-05-15T10:10:12.754Z,3.03
2023-05-15T10:13:17.107Z,3.40
2023-05-15T10:16:24.758Z,3.72
2023-05-15T10:19:29.286Z,3.00
2023-05-15T10:22:37.947Z,2.90
2023-05-15T10:25:47.963Z,2.97
2023-05-15T10:28:53.022Z,3.10
2023-05-15T10:31:59.964Z,3.00
2023-05-15T10:35:04.253Z,2.88
2023-05-15T10:38:09.214Z,2.30
2023-05-15T10:41:18.132Z,2.40
2023-05-15T10:44:23.515Z,2.53
2023-05-15T10:47:29.786Z,2.90
2023-05-15T10:50:36.317Z,2.70
2023-05-15T10:53:40.504Z,2.90
2023-05-15T10:56:44.571Z,3.00
2023-05-15T10:59:48.661Z,2.78
2023-05-15T11:02:56.359Z,2.60
2023-05-15T11:06:15.851Z,2.60
2023-05-15T11:09:25.839Z,2.78
2023-05-15T11:12:55.505Z,2.60
2023-05-15T11:15:59.599Z,2.80
2023-05-15T11:19:03.613Z,3.20
2023-05-15T11:22:33.665Z,2.90
2023-05-15T11:25:38.004Z,3.53
2023-05-15T11:28:43.690Z,3.25
2023-05-15T11:31:47.752Z,3.33
2023-05-15T11:34:51.874Z,3.45
2023-05-15T11:37:58.505Z,3.40
2023-05-15T11:41:03.355Z,3.47
2023-05-15T11:44:07.818Z,3.70
2023-05-15T11:47:12.038Z,3.35
2023-05-15T11:50:16.725Z,2.95
2023-05-15T11:53:23.196Z,3.15
2023-05-15T11:56:30.805Z,3.13
2023-05-15T11:59:34.863Z,3.60
2023-05-15T12:02:39.868Z,3.63
2023-05-15T12:05:54.109Z,3.90
2023-05-15T12:09:02.277Z,3.65
2023-05-15T12:12:12.787Z,3.90
2023-05-15T12:15:17.441Z,3.70
2023-05-15T12:18:21.776Z,3.65
2023-05-15T12:21:29.030Z,3.53
2023-05-15T12:24:35.693Z,3.65
2023-05-15T12:27:40.543Z,4.10
2023-05-15T12:30:45.083Z,3.50
2023-05-15T12:33:48.864Z,3.20
2023-05-15T12:36:52.866Z,3.40
2023-05-15T12:40:00.997Z,3.30
2023-05-15T12:43:07.181Z,3.22
2023-05-15T12:46:14.156Z,3.58
2023-05-15T12:49:22.947Z,3.92
2023-05-15T12:52:31.322Z,3.30
2023-05-15T12:55:36.584Z,3.08
2023-05-15T12:58:41.132Z,3.05
2023-05-15T13:01:45.550Z,2.85
2023-05-15T13:04:49.713Z,3.20
2023-05-15T13:07:54.361Z,3.13
2023-05-15T13:10:59.848Z,3.30
2023-05-15T13:14:11.149Z,4.20
2023-05-15T13:17:15.022Z,3.15
2023-05-15T13:20:19.103Z,3.28
2023-05-15T13:23:24.914Z,3.03
2023-05-15T13:26:29.101Z,3.55
2023-05-15T13:29:33.057Z,3.17
2023-05-15T13:32:36.937Z,3.08
2023-05-15T13:35:42.960Z,3.50
2023-05-15T13:38:47.187Z,3.10
2023-05-15T13:41:51.157Z,3.38
2023-05-15T13:44:54.802Z,3.22
2023-05-15T13:47:59.117Z,3.25
2023-05-15T13:51:03.339Z,2.88
2023-05-15T13:54:07.366Z,2.50
2023-05-15T13:57:11.205Z,2.70
2023-05-15T14:00:15.581Z,2.53
2023-05-15T14:03:19.468Z,2.38
2023-05-15T14:06:24.115Z,2.30
2023-05-15T14:09:28.537Z,2.40
2023-05-15T14:12:32.690Z,2.30
2023-05-15T14:15:36.648Z,2.20
2023-05-15T14:18:40.937Z,2.20
2023-05-15T14:21:45.404Z,2.38
2023-05-15T14:24:49.673Z,2.40
2023-05-15T14:27:53.810Z,2.22
2023-05-15T14:30:58.018Z,2.38
2023-05-15T14:34:02.245Z,2.20
2023-05-15T14:37:06.490Z,2.10
2023-05-15T14:40:11.185Z,2.33
2023-05-15T14:43:14.980Z,2.00
2023-05-15T14:46:19.026Z,1.90
2023-05-15T14:49:23.052Z,2.90
2023-05-15T14:52:27.095Z,3.20
2023-05-15T14:55:31.111Z,2.10
2023-05-15T14:58:34.941Z,2.42
2023-05-15T15:01:39.005Z,2.20
2023-05-15T15:04:42.902Z,2.47
2023-05-15T15:08:01.967Z,2.63
2023-05-15T15:11:06.421Z,2.92
2023-05-15T15:14:10.192Z,3.03
2023-05-15T15:17:14.500Z,2.75
2023-05-15T15:20:19.900Z,2.95
2023-05-15T15:23:23.898Z,3.22
2023-05-15T15:26:28.198Z,3.10
2023-05-15T15:29:32.319Z,3.05
2023-05-15T15:32:37.251Z,3.05
2023-05-15T15:35:41.395Z,2.63
2023-05-15T15:38:45.915Z,2.63
2023-05-15T15:41:50.086Z,2.50
2023-05-15T15:44:55.410Z,2.80
2023-05-15T15:47:59.896Z,2.60
2023-05-15T15:51:04.281Z,2.67
2023-05-15T15:54:08.164Z,2.83
2023-05-15T15:57:16.445Z,2.90
2023-05-15T16:00:20.721Z,2.70
2023-05-15T16:03:24.834Z,2.75
2023-05-15T16:06:29.054Z,3.10
2023-05-15T16:09:33.592Z,3.08
2023-05-15T16:12:39.146Z,2.72
2023-05-15T16:15:43.036Z,2.95
2023-05-15T16:18:47.438Z,2.88
2023-05-15T16:21:51.425Z,2.70
2023-05-15T16:24:55.712Z,2.53
2023-05-15T16:27:59.306Z,3.00
2023-05-15T16:31:03.647Z,2.50
2023-05-15T16:34:08.629Z,2.50
2023-05-15T16:37:12.914Z,2.78
2023-05-15T16:40:17.080Z,2.80
2023-05-15T16:43:21.856Z,2.67
2023-05-15T16:46:26.260Z,2.60
2023-05-15T16:49:30.398Z,2.83
2023-05-15T16:52:34.424Z,2.45
2023-05-15T16:55:38.743Z,2.67
2023-05-15T16:58:42.779Z,2.92
2023-05-15T17:01:46.826Z,2.60
2023-05-15T17:04:50.798Z,2.85
2023-05-15T17:07:54.987Z,2.90
2023-05-15T17:10:58.974Z,2.70
2023-05-15T17:14:02.880Z,2.90
2023-05-15T17:17:06.543Z,2.80
2023-05-15T17:20:11.685Z,2.85
2023-05-15T17:23:16.019Z,2.92
2023-05-15T17:26:21.456Z,2.90
2023-05-15T17:29:25.613Z,3.20
2023-05-15T17:32:30.194Z,3.28
2023-05-15T17:35:34.608Z,2.90
2023-05-15T17:38:38.596Z,3.10
2023-05-15T17:41:42.648Z,2.78
2023-05-15T17:44:46.939Z,3.00
2023-05-15T17:47:50.741Z,3.42
2023-05-15T17:50:54.927Z,2.90
2023-05-15T17:53:58.770Z,2.45
2023-05-15T17:57:02.947Z,3.40
2023-05-15T18:00:08.250Z,2.72
2023-05-15T18:03:12.454Z,3.10
2023-05-15T18:06:17.347Z,2.85
2023-05-15T18:09:23.857Z,3.20
2023-05-15T18:12:28.467Z,3.10
2023-05-15T18:15:32.763Z,2.75
2023-05-15T18:18:36.844Z,2.65
2023-05-15T18:21:40.858Z,2.90
2023-05-15T18:24:45.164Z,2.92
2023-05-15T18:27:49.217Z,2.83
2023-05-15T18:30:53.179Z,3.00
2023-05-15T18:33:56.920Z,3.03
2023-05-15T18:37:01.055Z,3.90
2023-05-15T18:40:05.581Z,3.33
2023-05-15T18:43:09.729Z,3.20
2023-05-15T18:46:13.928Z,3.00
2023-05-15T18:49:18.094Z,3.40
2023-05-15T18:52:22.156Z,3.40
2023-05-15T18:55:27.473Z,3.70
2023-05-15T18:58:31.995Z,3.28
2023-05-15T19:01:36.101Z,3.40
2023-05-15T19:04:40.258Z,3.70
2023-05-15T19:07:45.156Z,3.67
2023-05-15T19:10:50.397Z,4.55
2023-05-15T19:13:54.611Z,3.67
2023-05-15T19:16:59.071Z,3.83
2023-05-15T19:20:03.780Z,3.85
2023-05-15T19:23:08.672Z,3.65
2023-05-15T19:26:13.341Z,3.75
2023-05-15T19:29:17.608Z,3.92
2023-05-15T19:32:25.369Z,4.00
2023-05-15T19:35:29.562Z,3.70
2023-05-15T19:38:33.577Z,4.47
2023-05-15T19:41:37.668Z,3.92
2023-05-15T19:44:42.168Z,3.90
2023-05-15T19:47:46.600Z,3.63
2023-05-15T19:50:51.143Z,3.85
2023-05-15T19:53:56.847Z,3.95
2023-05-15T19:57:02.843Z,3.97
2023-05-15T20:00:08.228Z,3.50
2023-05-15T20:03:12.654Z,3.60
2023-05-15T20:06:16.849Z,3.40
2023-05-15T20:09:20.995Z,3.75
2023-05-15T20:12:24.839Z,3.92
2023-05-15T20:15:29.427Z,3.88
2023-05-15T20:18:34.798Z,4.30
2023-05-15T20:21:39.239Z,3.83
2023-05-15T20:24:43.094Z,4.20
2023-05-15T20:27:47.075Z,4.07
2023-05-15T20:30:52.440Z,4.55
2023-05-15T20:33:56.945Z,4.63
2023-05-15T20:37:02.590Z,4.60
2023-05-15T20:40:08.040Z,4.60
2023-05-15T20:43:12.094Z,4.72
2023-05-15T20:46:16.940Z,4.22
2023-05-15T20:49:21.038Z,4.40
2023-05-15T20:52:25.066Z,4.47
2023-05-15T20:55:29.557Z,4.40
2023-05-15T20:58:33.713Z,4.43
2023-05-15T21:01:37.615Z,4.35
2023-05-15T21:04:41.826Z,4.82
2023-05-15T21:07:46.174Z,4.40
2023-05-15T21:10:52.998Z,4.60
2023-05-15T21:13:57.006Z,4.55
2023-05-15T21:17:01.028Z,4.40
2023-05-15T21:20:05.297Z,4.25
2023-05-15T21:23:09.250Z,4.55
2023-05-15T21:26:13.687Z,4.72
2023-05-15T21:29:18.096Z,5.05
2023-05-15T21:32:23.371Z,4.80
2023-05-15T21:35:28.957Z,5.22
2023-05-15T21:38:33.133Z,5.43
2023-05-15T21:41:37.547Z,4.88
2023-05-15T21:44:41.646Z,4.80
2023-05-15T21:47:45.834Z,5.20
2023-05-15T21:50:49.557Z,5.43
2023-05-15T21:53:53.556Z,5.38
2023-05-15T21:56:57.697Z,5.65
2023-05-15T22:00:02.580Z,5.40
2023-05-15T22:03:06.791Z,5.30
2023-05-15T22:06:11.179Z,5.25
2023-05-15T22:09:15.694Z,5.20
2023-05-15T22:12:19.937Z,5.70
2023-05-15T22:15:24.371Z,5.50
2023-05-15T22:18:28.833Z,5.47
2023-05-15T22:21:32.806Z,5.63
2023-05-15T22:24:36.842Z,5.70
2023-05-15T22:27:41.409Z,5.70
2023-05-15T22:30:45.368Z,5.47
2023-05-15T22:33:49.575Z,6.03
2023-05-15T22:40:03.755Z,5.35
2023-05-15T22:43:07.668Z,5.55
2023-05-15T22:46:11.667Z,5.07
2023-05-15T22:49:19.268Z,5.93
2023-05-15T22:52:23.767Z,5.72
2023-05-15T22:55:28.641Z,5.68
2023-05-15T22:58:32.822Z,6.00
2023-05-15T23:01:37.114Z,6.00
2023-05-15T23:04:41.340Z,5.90
2023-05-15T23:07:45.482Z,6.15
2023-05-15T23:10:49.264Z,6.07
2023-05-15T23:13:52.971Z,6.28
2023-05-15T23:16:56.857Z,6.13
2023-05-15T23:20:01.066Z,6.13
2023-05-15T23:23:05.292Z,5.90
2023-05-15T23:26:09.117Z,5.60
2023-05-15T23:29:12.840Z,5.85
2023-05-15T23:32:16.640Z,6.00
2023-05-15T23:35:20.646Z,6.47
2023-05-15T23:38:24.576Z,6.30
2023-05-15T23:41:28.470Z,6.40
2023-05-15T23:44:32.523Z,6.07
2023-05-15T23:47:37.029Z,6.20
2023-05-15T23:50:40.975Z,6.18
2023-05-15T23:53:45.076Z,6.38
2023-05-15T23:56:48.862Z,6.43
2023-05-15T23:59:53.126Z,6.43
